createdAt,value
2019-03-24T00:01:26.585Z,102633.20
2019-03-24T00:03:57.201Z,102630.73
2019-03-24T00:06:27.783Z,102632.23
2019-03-24T00:08:58.387Z,102625.97
2019-03-24T00:11:28.965Z,102628.32
2019-03-24T00:13:59.525Z,102627.92
2019-03-24T00:16:30.127Z,102621.92
2019-03-24T00:19:00.615Z,102629.56
2019-03-24T00:21:31.164Z,102625.86
2019-03-24T00:24:01.900Z,102617.63
2019-03-24T00:26:32.433Z,102619.84
2019-03-24T00:29:03.043Z,102611.58
2019-03-24T00:31:33.583Z,102605.66
2019-03-24T00:34:04.139Z,102609.67
2019-03-24T00:36:34.680Z,102603.06
2019-03-24T00:39:07.152Z,102609.05
2019-03-24T00:41:37.793Z,102609.97
2019-03-24T00:44:08.332Z,102608.72
2019-03-24T00:46:38.874Z,102605.75
2019-03-24T00:49:09.454Z,102602.48
2019-03-24T00:51:40.005Z,102603.70
2019-03-24T00:54:10.591Z,102597.04
2019-03-24T00:56:41.102Z,102598.58
2019-03-24T00:59:11.669Z,102591.26
2019-03-24T01:01:42.217Z,102586.72
2019-03-24T01:04:12.804Z,102585.63
2019-03-24T01:06:43.397Z,102588.73
2019-03-24T01:09:13.994Z,102590.94
2019-03-24T01:11:44.529Z,102579.96
2019-03-24T01:14:15.119Z,102587.84
2019-03-24T01:16:45.655Z,102585.33
2019-03-24T01:19:16.232Z,102576.81
2019-03-24T01:21:46.786Z,102587.66
2019-03-24T01:24:17.367Z,102584.21
2019-03-24T01:26:47.925Z,102588.53
2019-03-24T01:29:18.499Z,102584.53
2019-03-24T01:31:49.027Z,102580.50
2019-03-24T01:34:19.609Z,102579.45
2019-03-24T01:36:50.171Z,102579.45
2019-03-24T01:39:20.750Z,102578.39
2019-03-24T01:41:51.325Z,102575.17
2019-03-24T01:44:21.912Z,102580.41
2019-03-24T01:46:52.432Z,102575.22
2019-03-24T01:49:22.993Z,102568.94
2019-03-24T01:51:53.543Z,102569.52
2019-03-24T01:54:24.624Z,102569.94
2019-03-24T01:56:55.146Z,102560.70
2019-03-24T01:59:25.999Z,102560.00
2019-03-24T02:01:56.641Z,102554.61
2019-03-24T02:04:27.221Z,102553.16
2019-03-24T02:06:57.745Z,102552.51
2019-03-24T02:09:28.425Z,102557.32
2019-03-24T02:11:58.943Z,102565.17
2019-03-24T02:14:29.502Z,102569.20
2019-03-24T02:17:00.061Z,102573.56
2019-03-24T02:19:30.634Z,102566.34
2019-03-24T02:22:01.194Z,102570.69
2019-03-24T02:24:31.887Z,102569.83
2019-03-24T02:27:02.508Z,102566.29
2019-03-24T02:29:33.076Z,102571.05
2019-03-24T02:32:03.653Z,102565.29
2019-03-24T02:34:34.264Z,102563.26
2019-03-24T02:37:04.791Z,102563.91
2019-03-24T02:39:35.468Z,102549.52
2019-03-24T02:42:06.012Z,102545.13
2019-03-24T02:44:36.671Z,102546.64
2019-03-24T02:47:07.201Z,102550.00
2019-03-24T02:49:37.790Z,102551.49
2019-03-24T02:52:08.312Z,102547.03
2019-03-24T02:54:38.862Z,102547.55
2019-03-24T02:57:09.432Z,102557.06
2019-03-24T02:59:40.008Z,102555.41
2019-03-24T03:02:10.637Z,102554.55
2019-03-24T03:04:41.238Z,102555.36
2019-03-24T03:07:11.909Z,102548.02
2019-03-24T03:09:42.575Z,102554.51
2019-03-24T03:12:13.167Z,102566.74
2019-03-24T03:14:43.757Z,102565.73
2019-03-24T03:17:14.457Z,102558.23
2019-03-24T03:19:45.466Z,102556.73
2019-03-24T03:22:16.177Z,102557.38
2019-03-24T03:24:46.790Z,102556.85
2019-03-24T03:27:17.384Z,102557.17
2019-03-24T03:29:48.003Z,102554.61
2019-03-24T03:32:18.618Z,102550.24
2019-03-24T03:34:49.595Z,102557.44
2019-03-24T03:37:20.262Z,102553.22
2019-03-24T03:39:51.118Z,102545.26
2019-03-24T03:42:21.700Z,102539.91
2019-03-24T03:44:52.232Z,102534.57
2019-03-24T03:47:22.942Z,102534.05
2019-03-24T03:49:53.474Z,102528.88
2019-03-24T03:52:24.110Z,102523.36
2019-03-24T03:54:54.629Z,102529.52
2019-03-24T03:57:25.242Z,102529.02
2019-03-24T03:59:55.770Z,102533.66
2019-03-24T04:02:26.431Z,102534.89
2019-03-24T04:04:56.981Z,102534.90
2019-03-24T04:07:27.551Z,102532.59
2019-03-24T04:09:58.083Z,102530.20
2019-03-24T04:12:28.640Z,102524.95
2019-03-24T04:14:59.151Z,102522.44
2019-03-24T04:17:29.709Z,102513.05
2019-03-24T04:20:00.559Z,102507.23
2019-03-24T04:22:31.205Z,102504.23
2019-03-24T04:25:01.791Z,102514.76
2019-03-24T04:27:32.334Z,102518.63
2019-03-24T04:30:02.866Z,102507.95
2019-03-24T04:32:33.390Z,102507.45
2019-03-24T04:35:03.926Z,102505.44
2019-03-24T04:37:34.485Z,102503.42
2019-03-24T04:40:05.089Z,102510.42
2019-03-24T04:42:35.694Z,102506.26
2019-03-24T04:45:06.430Z,102505.28
2019-03-24T04:47:36.996Z,102500.23
2019-03-24T04:50:07.891Z,102495.09
2019-03-24T04:52:38.479Z,102494.58
2019-03-24T04:55:09.571Z,102497.24
2019-03-24T04:57:40.144Z,102493.77
2019-03-24T05:00:11.787Z,102487.09
2019-03-24T05:02:42.362Z,102483.92
2019-03-24T05:05:12.943Z,102482.60
2019-03-24T05:07:43.619Z,102486.45
2019-03-24T05:10:26.275Z,102479.73
2019-03-24T05:12:57.003Z,102484.28
2019-03-24T05:15:27.522Z,102474.94
2019-03-24T05:17:58.077Z,102475.95
2019-03-24T05:20:28.603Z,102472.92
2019-03-24T05:22:59.176Z,102477.74
2019-03-24T05:25:29.733Z,102480.93
2019-03-24T05:28:00.301Z,102483.25
2019-03-24T05:30:30.860Z,102486.59
2019-03-24T05:33:02.749Z,102487.12
2019-03-24T05:35:33.270Z,102484.93
2019-03-24T05:38:03.847Z,102486.59
2019-03-24T05:40:34.449Z,102493.61
2019-03-24T05:43:05.013Z,102487.12
2019-03-24T05:45:35.537Z,102474.77
2019-03-24T05:48:06.111Z,102473.95
2019-03-24T05:50:36.637Z,102472.25
2019-03-24T05:53:07.203Z,102474.75
2019-03-24T05:55:37.707Z,102475.92
2019-03-24T05:58:08.283Z,102470.22
2019-03-24T06:00:38.857Z,102473.25
2019-03-24T06:03:09.661Z,102473.61
2019-03-24T06:05:40.405Z,102467.27
2019-03-24T06:08:14.025Z,102472.08
2019-03-24T06:10:44.591Z,102476.93
2019-03-24T06:13:15.255Z,102487.94
2019-03-24T06:15:45.771Z,102489.23
2019-03-24T06:18:26.854Z,102486.23
2019-03-24T06:20:57.491Z,102479.56
2019-03-24T06:23:28.061Z,102470.55
2019-03-24T06:25:58.657Z,102473.70
2019-03-24T06:28:29.227Z,102476.09
2019-03-24T06:31:01.748Z,102483.21
2019-03-24T06:33:32.452Z,102477.70
2019-03-24T06:36:03.004Z,102482.23
2019-03-24T06:38:33.658Z,102487.11
2019-03-24T06:41:04.362Z,102485.43
2019-03-24T06:43:34.955Z,102490.12
2019-03-24T06:46:05.744Z,102482.61
2019-03-24T06:48:36.921Z,102477.79
2019-03-24T06:51:07.604Z,102474.09
2019-03-24T06:53:38.205Z,102471.92
2019-03-24T06:56:09.043Z,102467.72
2019-03-24T06:58:39.587Z,102464.89
2019-03-24T07:01:10.138Z,102475.78
2019-03-24T07:03:40.677Z,102473.25
2019-03-24T07:06:11.279Z,102465.90
2019-03-24T07:08:41.889Z,102471.92
2019-03-24T07:11:13.874Z,102470.58
2019-03-24T07:13:44.679Z,102467.27
2019-03-24T07:16:15.287Z,102465.90
2019-03-24T07:18:45.858Z,102461.08
2019-03-24T07:21:16.423Z,102450.20
2019-03-24T07:23:46.953Z,102450.84
2019-03-24T07:26:25.853Z,102446.45
2019-03-24T07:28:58.344Z,102442.28
2019-03-24T07:31:28.924Z,102440.78
2019-03-24T07:33:59.458Z,102438.42
2019-03-24T07:36:30.051Z,102446.52
2019-03-24T07:39:00.641Z,102442.68
2019-03-24T07:41:31.216Z,102443.45
2019-03-24T07:44:03.101Z,102443.84
2019-03-24T07:46:33.632Z,102446.52
2019-03-24T07:49:04.175Z,102446.52
2019-03-24T07:51:34.764Z,102447.45
2019-03-24T07:54:05.305Z,102456.34
2019-03-24T07:56:35.881Z,102450.87
2019-03-24T07:59:06.456Z,102451.01
2019-03-24T08:01:37.062Z,102447.94
2019-03-24T08:04:07.598Z,102455.50
2019-03-24T08:06:38.196Z,102456.05
2019-03-24T08:09:08.794Z,102451.33
2019-03-24T08:11:39.358Z,102448.30
2019-03-24T08:14:09.915Z,102444.88
2019-03-24T08:16:40.656Z,102441.37
2019-03-24T08:19:11.222Z,102444.48
2019-03-24T08:21:41.862Z,102436.22
2019-03-24T08:24:12.490Z,102440.73
2019-03-24T08:26:43.082Z,102434.22
2019-03-24T08:29:13.655Z,102434.07
2019-03-24T08:31:44.262Z,102431.31
2019-03-24T08:34:14.860Z,102420.90
2019-03-24T08:36:45.486Z,102422.00
2019-03-24T08:39:16.075Z,102413.66
2019-03-24T08:41:46.704Z,102404.30
2019-03-24T08:44:17.249Z,102394.53
2019-03-24T08:46:47.826Z,102389.48
2019-03-24T08:49:18.363Z,102394.20
2019-03-24T08:51:51.211Z,102397.69
2019-03-24T08:54:21.198Z,102397.51
2019-03-24T08:56:51.963Z,102401.06
2019-03-24T08:59:22.530Z,102394.12
2019-03-24T09:01:53.157Z,102388.14
2019-03-24T09:04:23.725Z,102378.38
2019-03-24T09:06:54.363Z,102379.97
2019-03-24T09:09:25.052Z,102378.52
2019-03-24T09:11:55.666Z,102370.36
2019-03-24T09:14:26.303Z,102368.41
2019-03-24T09:16:56.913Z,102362.38
2019-03-24T09:19:27.497Z,102361.77
2019-03-24T09:21:59.077Z,102354.98
2019-03-24T09:24:29.671Z,102354.17
2019-03-24T09:27:00.273Z,102352.81
2019-03-24T09:29:30.839Z,102339.19
2019-03-24T09:32:01.909Z,102337.27
2019-03-24T09:34:32.488Z,102331.73
2019-03-24T09:37:03.133Z,102322.95
2019-03-24T09:39:33.709Z,102317.75
2019-03-24T09:42:04.302Z,102315.96
2019-03-24T09:44:34.837Z,102324.08
2019-03-24T09:47:05.423Z,102323.71
2019-03-24T09:49:36.007Z,102316.76
2019-03-24T09:52:06.616Z,102300.03
2019-03-24T09:54:37.183Z,102305.70
2019-03-24T09:57:08.616Z,102305.66
2019-03-24T09:59:39.248Z,102300.86
2019-03-24T10:02:09.833Z,102302.07
2019-03-24T10:04:40.409Z,102302.64
2019-03-24T10:07:11.061Z,102303.48
2019-03-24T10:09:41.606Z,102297.55
2019-03-24T10:12:12.222Z,102301.13
2019-03-24T10:14:42.817Z,102305.20
2019-03-24T10:17:13.499Z,102294.73
2019-03-24T10:19:44.199Z,102293.83
2019-03-24T10:22:14.802Z,102294.02
2019-03-24T10:24:45.360Z,102288.59
2019-03-24T10:27:16.055Z,102292.17
2019-03-24T10:29:46.729Z,102290.95
2019-03-24T10:32:17.348Z,102284.48
2019-03-24T10:34:48.059Z,102292.42
2019-03-24T10:37:18.715Z,102283.92
2019-03-24T10:39:49.317Z,102275.75
2019-03-24T10:42:19.959Z,102269.63
2019-03-24T10:44:50.564Z,102260.19
2019-03-24T10:47:21.233Z,102243.67
2019-03-24T10:49:51.825Z,102242.48
2019-03-24T10:52:22.512Z,102238.03
2019-03-24T10:54:53.091Z,102228.14
2019-03-24T10:57:23.699Z,102221.59
2019-03-24T10:59:54.300Z,102221.17
2019-03-24T11:02:24.936Z,102222.36
2019-03-24T11:04:55.643Z,102219.17
2019-03-24T11:07:26.373Z,102223.23
2019-03-24T11:09:56.946Z,102218.91
2019-03-24T11:12:27.564Z,102215.95
2019-03-24T11:14:58.161Z,102215.30
2019-03-24T11:17:28.781Z,102219.25
2019-03-24T11:19:59.417Z,102211.05
2019-03-24T11:22:30.066Z,102212.16
2019-03-24T11:25:00.683Z,102203.67
2019-03-24T11:27:31.358Z,102201.84
2019-03-24T11:30:02.035Z,102194.70
2019-03-24T11:32:32.675Z,102186.98
2019-03-24T11:35:03.339Z,102194.98
2019-03-24T11:37:34.012Z,102192.78
2019-03-24T11:40:05.049Z,102195.54
2019-03-24T11:42:35.686Z,102192.70
2019-03-24T11:45:06.686Z,102189.80
2019-03-24T11:47:37.288Z,102197.20
2019-03-24T11:50:08.513Z,102184.81
2019-03-24T11:52:39.103Z,102174.80
2019-03-24T11:55:10.113Z,102167.06
2019-03-24T11:57:40.731Z,102161.07
2019-03-24T12:00:12.228Z,102162.05
2019-03-24T12:02:42.904Z,102151.98
2019-03-24T12:05:13.654Z,102153.05
2019-03-24T12:07:44.292Z,102142.52
2019-03-24T12:10:14.934Z,102137.89
2019-03-24T12:12:45.516Z,102139.34
2019-03-24T12:15:16.154Z,102132.74
2019-03-24T12:17:46.758Z,102130.64
2019-03-24T12:20:17.342Z,102133.86
2019-03-24T12:22:47.903Z,102130.28
2019-03-24T12:25:18.508Z,102126.81
2019-03-24T12:27:49.098Z,102121.33
2019-03-24T12:30:20.855Z,102117.33
2019-03-24T12:32:51.402Z,102107.25
2019-03-24T12:35:22.030Z,102103.03
2019-03-24T12:37:52.620Z,102097.55
2019-03-24T12:40:23.253Z,102094.79
2019-03-24T12:42:53.883Z,102095.49
2019-03-24T12:45:24.589Z,102090.63
2019-03-24T12:47:55.183Z,102088.78
2019-03-24T12:50:31.360Z,102093.42
2019-03-24T12:52:58.079Z,102086.22
2019-03-24T12:55:28.718Z,102090.95
2019-03-24T12:58:04.075Z,102081.98
2019-03-24T13:00:39.612Z,102086.11
2019-03-24T13:03:10.205Z,102076.88
2019-03-24T13:05:40.822Z,102081.63
2019-03-24T13:08:15.782Z,102070.50
2019-03-24T13:10:47.213Z,102070.61
2019-03-24T13:13:17.872Z,102070.55
2019-03-24T13:15:48.524Z,102058.39
2019-03-24T13:18:19.212Z,102062.12
2019-03-24T13:20:49.883Z,102055.09
2019-03-24T13:23:20.491Z,102052.30
2019-03-24T13:25:51.158Z,102048.16
2019-03-24T13:28:21.741Z,102037.43
2019-03-24T13:30:52.393Z,102040.11
2019-03-24T13:33:23.020Z,102037.23
2019-03-24T13:36:05.476Z,102040.62
2019-03-24T13:38:36.108Z,102029.69
2019-03-24T13:41:06.756Z,102033.52
2019-03-24T13:43:37.397Z,102024.31
2019-03-24T13:46:08.090Z,102015.94
2019-03-24T13:48:38.732Z,102011.08
2019-03-24T13:51:09.412Z,102007.99
2019-03-24T13:53:40.059Z,102008.52
2019-03-24T13:56:10.803Z,102005.81
2019-03-24T13:58:41.496Z,102000.12
2019-03-24T14:01:12.248Z,101992.80
2019-03-24T14:03:42.858Z,101998.98
2019-03-24T14:06:13.511Z,101990.82
2019-03-24T14:08:44.233Z,101991.76
2019-03-24T14:11:15.689Z,101983.50
2019-03-24T14:13:46.334Z,101982.56
2019-03-24T14:16:16.971Z,101974.00
2019-03-24T14:18:47.596Z,101971.11
2019-03-24T14:21:18.273Z,101972.09
2019-03-24T14:23:48.916Z,101962.41
2019-03-24T14:26:19.640Z,101961.05
2019-03-24T14:28:50.332Z,101962.05
2019-03-24T14:31:21.666Z,101950.52
2019-03-24T14:33:52.339Z,101945.52
2019-03-24T14:36:23.151Z,101945.65
2019-03-24T14:38:53.742Z,101946.59
2019-03-24T14:41:24.385Z,101946.39
2019-03-24T14:43:55.001Z,101940.72
2019-03-24T14:46:25.765Z,101944.28
2019-03-24T14:48:56.382Z,101949.48
2019-03-24T14:51:27.055Z,101936.03
2019-03-24T14:53:57.701Z,101932.09
2019-03-24T14:56:28.283Z,101927.75
2019-03-24T14:58:58.877Z,101916.91
2019-03-24T15:01:29.495Z,101914.91
2019-03-24T15:04:00.087Z,101915.84
2019-03-24T15:06:30.702Z,101916.27
2019-03-24T15:09:01.299Z,101908.41
2019-03-24T15:11:34.989Z,101902.61
2019-03-24T15:14:06.016Z,101900.77
2019-03-24T15:16:36.641Z,101901.72
2019-03-24T15:19:07.257Z,101910.52
2019-03-24T15:21:37.906Z,101903.86
2019-03-24T15:24:08.509Z,101898.56
2019-03-24T15:26:39.169Z,101891.56
2019-03-24T15:29:09.748Z,101888.34
2019-03-24T15:31:40.484Z,101882.77
2019-03-24T15:34:11.173Z,101892.58
2019-03-24T15:36:41.783Z,101891.78
2019-03-24T15:39:12.507Z,101884.94
2019-03-24T15:41:43.097Z,101886.97
2019-03-24T15:44:14.072Z,101876.98
2019-03-24T15:46:44.765Z,101878.72
2019-03-24T15:49:15.399Z,101878.63
2019-03-24T15:51:46.065Z,101872.02
2019-03-24T15:54:16.683Z,101865.58
2019-03-24T15:56:47.351Z,101861.55
2019-03-24T15:59:18.019Z,101853.21
2019-03-24T16:01:48.615Z,101850.00
2019-03-24T16:04:19.239Z,101853.63
2019-03-24T16:06:49.848Z,101840.91
2019-03-24T16:09:20.483Z,101844.66
2019-03-24T16:11:51.213Z,101840.89
2019-03-24T16:14:21.850Z,101836.50
2019-03-24T16:16:52.519Z,101834.47
2019-03-24T16:19:23.141Z,101837.81
2019-03-24T16:21:53.799Z,101835.39
2019-03-24T16:24:24.447Z,101834.23
2019-03-24T16:26:55.108Z,101827.39
2019-03-24T16:29:25.712Z,101825.92
2019-03-24T16:31:56.365Z,101822.25
2019-03-24T16:34:26.997Z,101819.89
2019-03-24T16:36:57.624Z,101818.58
2019-03-24T16:39:28.252Z,101819.45
2019-03-24T16:41:58.950Z,101818.84
2019-03-24T16:44:29.558Z,101814.41
2019-03-24T16:47:00.225Z,101807.70
2019-03-24T16:49:30.923Z,101808.86
2019-03-24T16:52:01.931Z,101803.87
2019-03-24T16:54:32.520Z,101802.83
2019-03-24T16:57:03.153Z,101801.94
2019-03-24T16:59:33.775Z,101804.23
2019-03-24T17:02:04.511Z,101795.73
2019-03-24T17:04:35.141Z,101797.66
2019-03-24T17:07:07.768Z,101790.66
2019-03-24T17:09:38.402Z,101791.69
2019-03-24T17:12:09.084Z,101788.44
2019-03-24T17:14:42.410Z,101794.88
2019-03-24T17:17:13.178Z,101788.76
2019-03-24T17:19:43.770Z,101787.52
2019-03-24T17:22:14.382Z,101784.77
2019-03-24T17:24:44.964Z,101783.52
2019-03-24T17:27:15.604Z,101780.16
2019-03-24T17:29:46.258Z,101772.66
2019-03-24T17:32:16.976Z,101776.70
2019-03-24T17:34:47.622Z,101769.88
2019-03-24T17:37:18.241Z,101763.83
2019-03-24T17:39:48.857Z,101761.55
2019-03-24T17:42:19.534Z,101765.06
2019-03-24T17:44:50.104Z,101761.02
2019-03-24T17:47:20.737Z,101765.16
2019-03-24T17:49:51.464Z,101761.73
2019-03-24T17:52:22.134Z,101754.73
2019-03-24T17:54:52.710Z,101757.95
2019-03-24T17:57:23.417Z,101758.87
2019-03-24T17:59:54.036Z,101752.60
2019-03-24T18:02:24.698Z,101753.41
2019-03-24T18:04:55.378Z,101750.41
2019-03-24T18:07:25.995Z,101743.31
2019-03-24T18:09:56.620Z,101750.59
2019-03-24T18:12:27.211Z,101750.05
2019-03-24T18:14:57.900Z,101745.33
2019-03-24T18:17:28.616Z,101747.92
2019-03-24T18:19:59.590Z,101742.13
2019-03-24T18:22:30.211Z,101740.72
2019-03-24T18:25:00.912Z,101736.36
2019-03-24T18:27:31.559Z,101740.42
2019-03-24T18:30:02.716Z,101743.41
2019-03-24T18:32:33.290Z,101741.83
2019-03-24T18:35:04.427Z,101749.17
2019-03-24T18:37:35.033Z,101745.45
2019-03-24T18:40:06.640Z,101741.10
2019-03-24T18:42:37.412Z,101739.38
2019-03-24T18:45:09.807Z,101740.79
2019-03-24T18:47:40.434Z,101731.94
2019-03-24T18:50:11.477Z,101736.69
2019-03-24T18:52:42.126Z,101731.23
2019-03-24T18:55:13.651Z,101737.20
2019-03-24T18:57:44.310Z,101735.45
2019-03-24T19:00:15.356Z,101731.63
2019-03-24T19:02:45.928Z,101723.92
2019-03-24T19:05:16.649Z,101729.69
2019-03-24T19:07:47.257Z,101730.30
2019-03-24T19:10:18.544Z,101729.59
2019-03-24T19:12:49.112Z,101727.51
2019-03-24T19:15:20.158Z,101728.85
2019-03-24T19:17:50.813Z,101726.17
2019-03-24T19:20:21.607Z,101732.34
2019-03-24T19:22:52.271Z,101726.80
2019-03-24T19:25:22.848Z,101726.27
2019-03-24T19:27:53.479Z,101723.59
2019-03-24T19:30:37.889Z,101717.72
2019-03-24T19:33:08.482Z,101711.32
2019-03-24T19:35:39.229Z,101713.47
2019-03-24T19:38:09.780Z,101706.26
2019-03-24T19:40:40.526Z,101706.56
2019-03-24T19:43:11.119Z,101702.66
2019-03-24T19:45:41.796Z,101707.80
2019-03-24T19:48:12.430Z,101698.52
2019-03-24T19:50:43.079Z,101705.66
2019-03-24T19:53:13.650Z,101701.81
2019-03-24T19:55:44.372Z,101701.30
2019-03-24T19:58:14.967Z,101697.87
2019-03-24T20:00:45.597Z,101701.20
2019-03-24T20:03:16.211Z,101707.07
2019-03-24T20:05:46.895Z,101695.42
2019-03-24T20:08:17.534Z,101695.09
2019-03-24T20:10:48.189Z,101688.42
2019-03-24T20:13:18.823Z,101678.47
2019-03-24T20:15:49.546Z,101667.67
2019-03-24T20:18:20.116Z,101658.84
2019-03-24T20:20:52.097Z,101658.47
2019-03-24T20:23:22.925Z,101644.41
2019-03-24T20:25:53.551Z,101644.92
2019-03-24T20:28:24.219Z,101640.66
2019-03-24T20:30:54.835Z,101637.94
2019-03-24T20:33:25.404Z,101630.27
2019-03-24T20:35:56.019Z,101624.57
2019-03-24T20:38:26.699Z,101624.27
2019-03-24T20:40:57.413Z,101617.23
2019-03-24T20:43:28.051Z,101611.98
2019-03-24T20:45:58.673Z,101610.87
2019-03-24T20:48:29.285Z,101608.91
2019-03-24T20:50:59.941Z,101600.30
2019-03-24T20:53:30.659Z,101599.16
2019-03-24T20:56:02.771Z,101596.08
2019-03-24T20:58:33.434Z,101586.91
2019-03-24T21:01:05.989Z,101592.77
2019-03-24T21:03:36.671Z,101592.57
2019-03-24T21:06:10.160Z,101586.28
2019-03-24T21:08:40.931Z,101587.20
2019-03-24T21:11:11.627Z,101578.55
2019-03-24T21:13:42.278Z,101567.34
2019-03-24T21:16:13.149Z,101571.12
2019-03-24T21:18:43.837Z,101565.68
2019-03-24T21:21:14.502Z,101557.81
2019-03-24T21:23:45.306Z,101566.20
2019-03-24T21:26:15.884Z,101552.59
2019-03-24T21:28:46.602Z,101550.97
2019-03-24T21:31:17.195Z,101551.48
2019-03-24T21:33:48.015Z,101543.34
2019-03-24T21:36:18.864Z,101533.72
2019-03-24T21:38:49.547Z,101536.23
2019-03-24T21:41:20.124Z,101523.67
2019-03-24T21:43:50.741Z,101523.67
2019-03-24T21:46:21.375Z,101520.06
2019-03-24T21:48:52.025Z,101511.58
2019-03-24T21:51:22.655Z,101508.84
2019-03-24T21:53:53.286Z,101504.63
2019-03-24T21:56:23.883Z,101503.05
2019-03-24T21:58:54.463Z,101500.17
2019-03-24T22:01:25.056Z,101501.11
2019-03-24T22:03:55.645Z,101493.41
2019-03-24T22:06:26.261Z,101495.34
2019-03-24T22:08:56.853Z,101490.63
2019-03-24T22:11:27.397Z,101482.78
2019-03-24T22:13:58.010Z,101480.91
2019-03-24T22:16:28.617Z,101481.84
2019-03-24T22:18:59.237Z,101470.96
2019-03-24T22:21:29.809Z,101464.88
2019-03-24T22:24:00.415Z,101469.09
2019-03-24T22:26:30.975Z,101472.38
2019-03-24T22:29:01.723Z,101472.58
2019-03-24T22:31:32.280Z,101460.42
2019-03-24T22:34:02.951Z,101458.67
2019-03-24T22:36:33.596Z,101464.75
2019-03-24T22:39:05.358Z,101458.91
2019-03-24T22:41:35.971Z,101449.22
2019-03-24T22:44:06.686Z,101434.75
2019-03-24T22:46:37.369Z,101432.48
2019-03-24T22:49:08.005Z,101422.48
2019-03-24T22:51:38.603Z,101422.48
2019-03-24T22:54:09.224Z,101414.14
2019-03-24T22:56:39.862Z,101409.30
2019-03-24T22:59:10.593Z,101407.67
2019-03-24T23:01:41.173Z,101402.82
2019-03-24T23:04:11.862Z,101390.52
2019-03-24T23:06:42.451Z,101391.42
2019-03-24T23:09:13.038Z,101383.21
2019-03-24T23:11:43.637Z,101378.84
2019-03-24T23:14:14.316Z,101367.54
2019-03-24T23:16:44.917Z,101362.22
2019-03-24T23:19:15.477Z,101355.50
2019-03-24T23:21:46.122Z,101349.30
2019-03-24T23:24:16.834Z,101342.17
2019-03-24T23:26:47.478Z,101331.04
2019-03-24T23:29:18.185Z,101317.47
2019-03-24T23:31:48.844Z,101320.56
2019-03-24T23:34:19.526Z,101314.13
2019-03-24T23:36:50.182Z,101315.51
2019-03-24T23:39:20.861Z,101299.44
2019-03-24T23:41:51.490Z,101285.02
2019-03-24T23:44:22.077Z,101286.34
2019-03-24T23:46:52.744Z,101278.65
2019-03-24T23:49:23.625Z,101277.62
2019-03-24T23:51:54.222Z,101283.66
2019-03-24T23:54:27.350Z,101266.52
2019-03-24T23:56:57.156Z,101267.77
2019-03-24T23:59:27.740Z,101255.11
